world map with SZY marked

SZY - Airport

This information may not be accurate or current and is not valid for navigation or flight planning. No warranty of fitness for any purpose is made or implied.

flag of Warminsko-Mazurskieflag of Poland

Donate via PayPal

Additional information is available on the NEW Great Circle Mapper

Location
City:  Szczytno, Warminsko-Mazurskie, Poland
Name:Szczytno-Szymany International Airport
ICAO / IATA:EPSY / SZY

Details
Type:Airport (Aerodrome, Airfield)
Latitude:53°28'55"N (53.481858)
Longitude:20°56'16"E (20.937692)
Datum:WGS 1984
Elevation:463 ft (141 m)
Runways:1
Longest:6562 × 197 ft (2000 × 60 m)

Time
Timezone:UTC+1 (DST+4)
Local Time:

Weather
METAR:EPSY  041400Z 31004KT 270V340 9999 OVC020 M00/M02 Q1027 R01/290095

Related Locations
Nearby:
Farthest:CHT: 11400 mi / 18347 km
Waitangi [Tuuta], CIT, NZ

Find:

   beyond  
but within

Other Information
Maps:
Sources:

  


 


Great Circle Mapper   Great Circle Mapper
Great Circle Mapper FAQ   Great Circle Mapper FAQ
  Karl's Home Page
KLSē   KLSē Home
   GC on Facebook
Airlines of the World   Airlines of the World
Donate via PayPal


Copyright © 2004-2020, Karl L. Swartz. All rights reserved.
All trademarks mentioned herein belong to their respective owners.

Please see credits for attribution and copyright information.

Karl Swartz <karl@kls2.com>
  Powered by FreeBSD
Valid HTML 4.01!
Labeled with ICRA
hCard Microformat
Geo Microformat